Portada
METAR-TAF:

METAR-TAF

Aeroports :

Yeovilton, Anglaterra

latitud: 51-00N, longitud: 002-38W, altitud: 23 m

Observació

L'informe es va fer fa 57 minuts, a les 22:50 UTC
Vent 4 kt del Sud
Temperatura 2°C
Humitat 80%
Pressió 1015 hPa
Visibilitat 10 km o més
sense núvols per sota de 1500 mi sense presència de cumulonimbus.

METAR: EGDY 272250Z 19004KT CAVOK 02/M01 Q1015 BLU

Hora: 23:47 (23:47 UTC)

Pronòstic

L'informe es va fer fa 9 hores i 20 minuts, a les 14:27 UTC
Pronòstic vàlid del 27 a les 15 UTC al 27 a les 24 UTC
Vent 15 kt del Nord/Nord-Oest amb ràfegues de 25 kt
Visibilitat 10 km o més
Escasses núvols a una alçada de 2500 ft
Temporalment
l' 27 a les 15 UTC al 27 a les 17 UTC
Vent 18 kt del Nord/Nord-Oest amb ràfegues de 28 kt
Evolucionant progressivament
l' 27 a les 17 UTC al 27 a les 19 UTC
Vent 7 kt del Oest

TAF: EGDY 271427Z 2715/2724 33015G25KT 9999 FEW025 TEMPO 2715/2717 33018G28KT BECMG 2717/2719 26007KT

Observacions i pronòstics meteorològics de més de 4000 aeroports (METAR i TAF).

Les estacions disponibles són els punts grocs i vermells al mapa.

Posi el ratolí al punt desitjat per veure el nom de l'estació.

Feu clic per veure les observacions i els pronòstics meteorològics.

Per canviar el mapa: feu clic els botons verds amb una creu de color negre per apropar; al botó verd amb un guió per allunyar la imatge; o en les fletxes verdes per a mapes adjacents.


METAR-TAF: